Hamburg °C
Tucson °C
Bonn °C
Lbeck °C
  20.05.2018 Ferienhaus Ostsee
Anmeldung



more...
[source: ADDS]
METAR
EDDH 201120Z 11013KT CAVOK 21/M00 Q1026 NOSIG =
TAF
TAF EDDH 201100Z 2012/2118 08012KT CAVOK BECMG 2017/2019 08006KT BECMG 2107/2109 10012KT TEMPO 2110/2117 11015G25KT =
Start Virencheck

Virencheck

Wer ist online
Wir haben 1 Gast online
Meine IP
Domain Check
Domain Name :
Check All Domain Types
.com .net .info .org .biz .co.uk .name .cc .us .tv .eu .edu .mobi .nl .ca